createdAt,value
2019-03-17T00:00:58.519Z,0.98
2019-03-17T00:03:27.699Z,4.47
2019-03-17T00:05:57.115Z,3.17
2019-03-17T00:08:26.312Z,2.80
2019-03-17T00:10:55.408Z,1.15
2019-03-17T00:13:24.814Z,1.90
2019-03-17T00:15:54.011Z,2.72
2019-03-17T00:18:23.204Z,0.60
2019-03-17T00:20:52.332Z,2.30
2019-03-17T00:23:21.394Z,1.90
2019-03-17T00:25:50.488Z,2.62
2019-03-17T00:28:19.589Z,4.00
2019-03-17T00:30:48.574Z,1.40
2019-03-17T00:33:17.571Z,3.20
2019-03-17T00:35:46.662Z,4.22
2019-03-17T00:38:15.757Z,3.17
2019-03-17T00:40:44.854Z,0.68
2019-03-17T00:43:13.948Z,2.45
2019-03-17T00:45:43.043Z,2.27
2019-03-17T00:48:12.340Z,0.88
2019-03-17T00:50:41.435Z,1.95
2019-03-17T00:53:10.531Z,1.20
2019-03-17T00:55:39.627Z,0.57
2019-03-17T00:58:08.552Z,2.58
2019-03-17T01:00:37.874Z,1.47
2019-03-17T01:03:06.766Z,0.88
2019-03-17T01:05:35.704Z,3.15
2019-03-17T01:08:04.613Z,3.40
2019-03-17T01:10:33.674Z,2.75
2019-03-17T01:13:02.572Z,1.85
2019-03-17T01:15:31.464Z,2.17
2019-03-17T01:18:00.459Z,1.25
2019-03-17T01:20:29.467Z,0.68
2019-03-17T01:22:58.439Z,2.60
2019-03-17T01:25:27.320Z,3.50
2019-03-17T01:27:56.204Z,4.47
2019-03-17T01:30:25.136Z,3.47
2019-03-17T01:32:54.501Z,3.20
2019-03-17T01:35:23.457Z,3.85
2019-03-17T01:37:52.405Z,2.77
2019-03-17T01:40:21.281Z,5.50
2019-03-17T01:42:50.241Z,1.95
2019-03-17T01:45:19.210Z,1.80
2019-03-17T01:47:48.240Z,2.10
2019-03-17T01:50:17.148Z,2.98
2019-03-17T01:52:46.098Z,1.45
2019-03-17T01:55:15.043Z,4.12
2019-03-17T01:57:43.981Z,3.25
2019-03-17T02:00:13.980Z,1.62
2019-03-17T02:02:42.944Z,2.12
2019-03-17T02:05:21.469Z,2.65
2019-03-17T02:07:42.756Z,4.25
2019-03-17T02:10:11.853Z,4.58
2019-03-17T02:12:40.947Z,0.68
2019-03-17T02:15:10.254Z,3.20
2019-03-17T02:17:39.342Z,1.75
2019-03-17T02:20:10.897Z,3.08
2019-03-17T02:22:40.192Z,1.50
2019-03-17T02:25:09.367Z,3.05
2019-03-17T02:27:38.256Z,1.50
2019-03-17T02:30:10.270Z,3.22
2019-03-17T02:32:39.169Z,3.00
2019-03-17T02:35:08.100Z,1.80
2019-03-17T02:37:37.056Z,2.45
2019-03-17T02:40:07.962Z,1.60
2019-03-17T02:42:36.859Z,5.45
2019-03-17T02:45:08.666Z,2.50
2019-03-17T02:47:37.595Z,1.85
2019-03-17T02:50:08.002Z,2.80
2019-03-17T02:52:36.968Z,2.77
2019-03-17T02:55:08.152Z,4.72
2019-03-17T02:57:37.098Z,2.17
2019-03-17T03:00:08.816Z,1.22
2019-03-17T03:02:37.815Z,1.80
2019-03-17T03:05:08.227Z,4.15
2019-03-17T03:07:37.265Z,3.77
2019-03-17T03:10:06.784Z,1.75
2019-03-17T03:12:35.687Z,1.60
2019-03-17T03:15:06.728Z,1.42
2019-03-17T03:17:35.621Z,1.00
2019-03-17T03:20:06.494Z,2.80
2019-03-17T03:22:35.380Z,3.62
2019-03-17T03:25:05.810Z,2.72
2019-03-17T03:27:34.805Z,3.87
2019-03-17T03:30:04.714Z,2.80
2019-03-17T03:32:33.714Z,6.60
2019-03-17T03:35:02.801Z,5.22
2019-03-17T03:37:31.778Z,2.55
2019-03-17T03:40:00.737Z,2.27
2019-03-17T03:42:29.915Z,1.57
2019-03-17T03:44:58.965Z,3.35
2019-03-17T03:47:27.855Z,3.55
2019-03-17T03:49:57.335Z,5.35
2019-03-17T03:52:26.394Z,3.62
2019-03-17T03:54:55.340Z,3.67
2019-03-17T03:57:24.245Z,2.47
2019-03-17T03:59:53.221Z,3.17
2019-03-17T04:02:22.112Z,5.55
2019-03-17T04:04:51.013Z,2.12
2019-03-17T04:07:19.976Z,2.12
2019-03-17T04:09:48.858Z,3.08
2019-03-17T04:12:17.803Z,2.98
2019-03-17T04:14:46.688Z,1.40
2019-03-17T04:17:15.682Z,1.50
2019-03-17T04:19:44.564Z,2.85
2019-03-17T04:22:13.486Z,5.30
2019-03-17T04:24:42.377Z,3.15
2019-03-17T04:27:11.346Z,2.87
2019-03-17T04:29:40.290Z,3.42
2019-03-17T04:32:09.321Z,1.70
2019-03-17T04:34:38.237Z,2.60
2019-03-17T04:37:07.158Z,4.45
2019-03-17T04:39:36.175Z,2.50
2019-03-17T04:42:05.237Z,4.25
2019-03-17T04:44:34.175Z,2.75
2019-03-17T04:47:03.153Z,3.25
2019-03-17T04:49:32.064Z,5.37
2019-03-17T04:52:00.960Z,2.60
2019-03-17T04:54:29.996Z,2.77
2019-03-17T04:56:58.938Z,1.98
2019-03-17T04:59:29.198Z,0.98
2019-03-17T05:01:58.130Z,0.90
2019-03-17T05:04:27.079Z,2.30
2019-03-17T05:06:56.032Z,1.05
2019-03-17T05:09:24.933Z,0.72
2019-03-17T05:11:53.872Z,4.25
2019-03-17T05:14:22.767Z,2.20
2019-03-17T05:16:51.759Z,1.50
2019-03-17T05:19:20.739Z,2.98
2019-03-17T05:21:49.660Z,2.05
2019-03-17T05:24:18.561Z,1.60
2019-03-17T05:26:47.464Z,1.75
2019-03-17T05:29:16.413Z,2.83
2019-03-17T05:31:45.309Z,2.98
2019-03-17T05:34:14.244Z,1.22
2019-03-17T05:36:43.150Z,4.12
2019-03-17T05:39:12.118Z,1.30
2019-03-17T05:41:41.157Z,4.62
2019-03-17T05:44:10.182Z,3.05
2019-03-17T05:46:39.085Z,1.42
2019-03-17T05:49:08.161Z,4.20
2019-03-17T05:51:37.460Z,2.35
2019-03-17T05:54:06.367Z,1.22
2019-03-17T05:56:35.446Z,2.12
2019-03-17T05:59:04.537Z,3.77
2019-03-17T06:01:33.636Z,0.95
2019-03-17T06:04:02.837Z,3.58
2019-03-17T06:06:31.822Z,5.67
2019-03-17T06:09:00.934Z,3.35
2019-03-17T06:11:29.895Z,2.25
2019-03-17T06:13:58.866Z,1.20
2019-03-17T06:16:27.745Z,3.87
2019-03-17T06:18:56.651Z,0.65
2019-03-17T06:21:25.602Z,0.98
2019-03-17T06:23:54.492Z,3.22
2019-03-17T06:26:23.420Z,0.62
2019-03-17T06:28:52.505Z,2.47
2019-03-17T06:31:21.388Z,1.17
2019-03-17T06:33:50.639Z,2.83
2019-03-17T06:36:19.733Z,1.98
2019-03-17T06:38:48.829Z,1.70
2019-03-17T06:41:18.229Z,2.80
2019-03-17T06:43:47.424Z,3.87
2019-03-17T06:46:16.337Z,1.47
2019-03-17T06:48:45.269Z,2.27
2019-03-17T06:51:14.628Z,1.40
2019-03-17T06:53:55.877Z,2.47
2019-03-17T06:56:15.883Z,2.12
2019-03-17T06:58:44.981Z,4.25
2019-03-17T07:01:15.453Z,3.75
2019-03-17T07:03:44.549Z,4.75
2019-03-17T07:06:15.068Z,5.10
2019-03-17T07:08:44.923Z,2.42
2019-03-17T07:11:16.395Z,2.10
2019-03-17T07:13:45.833Z,4.87
2019-03-17T07:16:16.184Z,4.47
2019-03-17T07:18:46.018Z,5.75
2019-03-17T07:21:17.058Z,3.30
2019-03-17T07:23:46.045Z,4.12
2019-03-17T07:26:15.025Z,7.17
2019-03-17T07:28:45.332Z,4.30
2019-03-17T07:31:16.373Z,2.62
2019-03-17T07:33:47.656Z,1.10
2019-03-17T07:36:17.332Z,0.50
2019-03-17T07:38:47.877Z,0.90
2019-03-17T07:41:18.721Z,2.17
2019-03-17T07:43:48.076Z,4.05
2019-03-17T07:46:17.543Z,1.90
2019-03-17T07:48:46.530Z,3.08
2019-03-17T07:51:16.798Z,0.68
2019-03-17T07:53:46.041Z,0.70
2019-03-17T07:56:15.438Z,1.05
2019-03-17T07:58:44.428Z,1.05
2019-03-17T08:01:14.440Z,1.12
2019-03-17T08:03:43.501Z,1.95
2019-03-17T08:06:13.687Z,1.92
2019-03-17T08:08:44.112Z,3.10
2019-03-17T08:11:15.011Z,1.57
2019-03-17T08:13:44.788Z,1.02
2019-03-17T08:16:14.517Z,1.22
2019-03-17T08:18:46.787Z,1.15
2019-03-17T08:21:19.228Z,1.00
2019-03-17T08:23:49.753Z,1.70
2019-03-17T08:26:19.925Z,0.70
2019-03-17T08:28:49.363Z,1.98
2019-03-17T08:31:18.741Z,1.75
2019-03-17T08:33:48.025Z,2.52
2019-03-17T08:36:17.780Z,2.15
2019-03-17T08:38:47.372Z,1.50
2019-03-17T08:41:16.495Z,0.40
2019-03-17T08:43:54.264Z,1.27
2019-03-17T08:46:18.150Z,0.90
2019-03-17T08:48:49.559Z,2.00
2019-03-17T08:51:19.743Z,1.92
2019-03-17T08:53:48.764Z,0.20
2019-03-17T08:56:19.021Z,0.98
2019-03-17T08:58:49.549Z,0.40
2019-03-17T09:01:20.213Z,0.72
2019-03-17T09:03:49.109Z,0.40
2019-03-17T09:06:19.611Z,1.92
2019-03-17T09:08:51.023Z,0.65
2019-03-17T09:11:21.143Z,1.02
2019-03-17T09:13:50.880Z,0.68
2019-03-17T09:16:21.595Z,0.20
2019-03-17T09:18:51.107Z,0.37
2019-03-17T09:21:22.138Z,0.98
2019-03-17T09:23:51.733Z,1.92
2019-03-17T09:26:20.646Z,1.17
2019-03-17T09:28:49.529Z,1.25
2019-03-17T09:31:18.800Z,0.50
2019-03-17T09:33:52.415Z,0.60
2019-03-17T09:36:22.684Z,0.53
2019-03-17T09:38:54.701Z,0.35
2019-03-17T09:41:25.086Z,1.12
2019-03-17T09:43:55.058Z,0.30
2019-03-17T09:46:25.258Z,0.90
2019-03-17T09:48:54.592Z,0.28
2019-03-17T09:51:24.983Z,2.60
2019-03-17T09:53:54.195Z,0.57
2019-03-17T09:56:24.623Z,1.10
2019-03-17T09:58:55.287Z,2.02
2019-03-17T10:01:25.245Z,0.30
2019-03-17T10:03:55.282Z,0.70
2019-03-17T10:06:25.404Z,0.30
2019-03-17T10:09:00.274Z,0.55
2019-03-17T10:11:27.077Z,1.05
2019-03-17T10:13:56.712Z,0.30
2019-03-17T10:16:27.340Z,0.95
2019-03-17T10:18:58.003Z,1.17
2019-03-17T10:21:28.428Z,0.72
2019-03-17T10:23:57.669Z,0.40
2019-03-17T10:26:26.798Z,0.23
2019-03-17T10:28:56.064Z,0.47
2019-03-17T10:31:25.207Z,0.20
2019-03-17T10:33:54.254Z,0.20
2019-03-17T10:36:23.346Z,0.20
2019-03-17T10:38:52.497Z,0.33
2019-03-17T10:41:21.945Z,1.85
2019-03-17T10:43:51.039Z,0.20
2019-03-17T10:46:20.342Z,0.30
2019-03-17T10:48:49.436Z,0.20
2019-03-17T10:51:19.218Z,0.20
2019-03-17T10:53:48.243Z,0.57
2019-03-17T10:56:17.538Z,0.08
2019-03-17T10:58:46.641Z,0.40
2019-03-17T11:01:16.438Z,1.17
2019-03-17T11:03:45.749Z,0.88
2019-03-17T11:06:14.738Z,1.22
2019-03-17T11:08:43.831Z,0.30
2019-03-17T11:11:13.748Z,0.53
2019-03-17T11:13:43.044Z,1.55
2019-03-17T11:16:12.142Z,1.02
2019-03-17T11:18:41.234Z,1.87
2019-03-17T11:21:10.873Z,3.45
2019-03-17T11:23:40.037Z,2.85
2019-03-17T11:26:09.034Z,1.30
2019-03-17T11:28:38.233Z,2.42
2019-03-17T11:31:07.735Z,4.17
2019-03-17T11:33:36.841Z,4.65
2019-03-17T11:36:05.923Z,4.20
2019-03-17T11:38:35.120Z,5.65
2019-03-17T11:41:04.121Z,3.35
2019-03-17T11:43:33.428Z,5.00
2019-03-17T11:46:02.410Z,7.10
2019-03-17T11:48:31.396Z,5.55
2019-03-17T11:51:00.694Z,7.95
2019-03-17T11:53:29.798Z,10.25
2019-03-17T11:55:58.994Z,10.13
2019-03-17T11:58:28.191Z,7.12
2019-03-17T12:00:57.294Z,9.98
2019-03-17T12:03:26.586Z,10.45
2019-03-17T12:05:55.688Z,7.20
2019-03-17T12:08:24.767Z,7.37
2019-03-17T12:10:54.272Z,10.08
2019-03-17T12:13:23.367Z,8.55
2019-03-17T12:15:53.281Z,6.97
2019-03-17T12:18:22.378Z,8.55
2019-03-17T12:20:51.474Z,10.28
2019-03-17T12:23:20.569Z,7.03
2019-03-17T12:25:49.659Z,12.73
2019-03-17T12:28:18.755Z,13.08
2019-03-17T12:30:47.851Z,10.93
2019-03-17T12:33:16.945Z,8.85
2019-03-17T12:35:46.244Z,14.30
2019-03-17T12:38:15.339Z,7.62
2019-03-17T12:40:44.638Z,8.93
2019-03-17T12:43:16.244Z,11.40
2019-03-17T12:45:45.289Z,11.30
2019-03-17T12:48:14.650Z,11.43
2019-03-17T12:50:43.679Z,9.65
2019-03-17T12:53:13.006Z,10.75
2019-03-17T12:55:42.284Z,13.88
2019-03-17T12:58:11.375Z,12.37
2019-03-17T13:00:40.477Z,8.10
2019-03-17T13:03:09.565Z,14.90
2019-03-17T13:05:38.658Z,11.18
2019-03-17T13:08:07.780Z,9.60
2019-03-17T13:10:36.845Z,5.85
2019-03-17T13:13:07.509Z,4.97
2019-03-17T13:15:36.675Z,6.25
2019-03-17T13:18:05.779Z,5.08
2019-03-17T13:20:34.866Z,7.58
2019-03-17T13:23:04.168Z,4.20
2019-03-17T13:25:33.263Z,7.72
2019-03-17T13:28:02.358Z,3.65
2019-03-17T13:30:31.447Z,7.05
2019-03-17T13:33:00.543Z,6.58
2019-03-17T13:35:29.641Z,7.87
2019-03-17T13:37:58.732Z,7.65
2019-03-17T13:40:29.806Z,11.93
2019-03-17T13:42:58.360Z,9.88
2019-03-17T13:45:28.769Z,10.08
2019-03-17T13:47:57.777Z,8.90
2019-03-17T13:50:26.870Z,8.15
2019-03-17T13:52:56.372Z,9.80
2019-03-17T13:55:27.120Z,7.03
2019-03-17T13:58:07.875Z,8.95
2019-03-17T14:00:37.175Z,14.73
2019-03-17T14:03:06.275Z,9.28
2019-03-17T14:05:35.366Z,6.15
2019-03-17T14:08:04.466Z,6.12
2019-03-17T14:10:40.980Z,6.78
2019-03-17T14:13:04.397Z,10.18
2019-03-17T14:15:33.489Z,10.35
2019-03-17T14:18:02.684Z,6.72
2019-03-17T14:20:31.776Z,7.78
2019-03-17T14:23:00.775Z,5.85
2019-03-17T14:25:32.043Z,11.45
2019-03-17T14:28:01.508Z,8.70
2019-03-17T14:30:30.835Z,8.73
2019-03-17T14:33:00.837Z,8.23
2019-03-17T14:35:29.834Z,11.60
2019-03-17T14:37:59.099Z,10.98
2019-03-17T14:40:28.394Z,5.78
2019-03-17T14:42:58.848Z,9.93
2019-03-17T14:45:29.277Z,9.08
2019-03-17T14:47:58.373Z,15.32
2019-03-17T14:50:27.874Z,12.10
2019-03-17T14:52:56.990Z,8.45
2019-03-17T14:55:27.305Z,6.75
2019-03-17T14:57:58.268Z,7.75
2019-03-17T15:00:27.534Z,10.18
2019-03-17T15:02:56.637Z,11.35
2019-03-17T15:05:26.129Z,6.50
2019-03-17T15:07:55.437Z,9.25
2019-03-17T15:10:25.783Z,7.03
2019-03-17T15:12:55.092Z,6.80
2019-03-17T15:15:25.786Z,11.10
2019-03-17T15:17:54.993Z,9.83
2019-03-17T15:20:28.095Z,11.78
2019-03-17T15:22:57.579Z,7.28
2019-03-17T15:25:26.672Z,9.53
2019-03-17T15:27:55.765Z,8.68
2019-03-17T15:30:29.796Z,12.23
2019-03-17T15:32:58.937Z,9.28
2019-03-17T15:35:28.170Z,7.85
2019-03-17T15:37:57.469Z,5.42
2019-03-17T15:40:28.109Z,6.92
2019-03-17T15:42:57.296Z,7.75
2019-03-17T15:45:26.804Z,7.25
2019-03-17T15:47:55.999Z,4.37
2019-03-17T15:50:26.422Z,6.72
2019-03-17T15:52:55.723Z,8.65
2019-03-17T15:55:25.025Z,11.48
2019-03-17T15:57:54.737Z,13.83
2019-03-17T16:00:27.280Z,11.83
2019-03-17T16:02:56.412Z,10.65
2019-03-17T16:05:25.920Z,9.93
2019-03-17T16:07:55.424Z,11.53
2019-03-17T16:10:29.833Z,12.60
2019-03-17T16:12:59.353Z,15.63
2019-03-17T16:15:28.885Z,12.00
2019-03-17T16:17:59.274Z,12.43
2019-03-17T16:20:28.623Z,9.83
2019-03-17T16:22:58.015Z,12.35
2019-03-17T16:25:28.499Z,10.85
2019-03-17T16:27:59.079Z,9.83
2019-03-17T16:30:33.717Z,9.65
2019-03-17T16:33:03.304Z,17.00
2019-03-17T16:35:33.582Z,11.80
2019-03-17T16:38:02.887Z,14.87
2019-03-17T16:40:33.843Z,12.13
2019-03-17T16:43:03.221Z,11.80
2019-03-17T16:45:33.398Z,12.85
2019-03-17T16:48:04.050Z,14.28
2019-03-17T16:50:34.005Z,16.95
2019-03-17T16:53:05.024Z,14.47
2019-03-17T16:55:34.936Z,12.07
2019-03-17T16:58:04.350Z,12.63
2019-03-17T17:00:33.650Z,12.85
2019-03-17T17:03:02.741Z,15.05
2019-03-17T17:05:34.807Z,7.75
2019-03-17T17:08:02.367Z,15.63
2019-03-17T17:10:31.670Z,13.45
2019-03-17T17:13:00.966Z,12.00
2019-03-17T17:15:34.152Z,12.82
2019-03-17T17:18:03.342Z,10.88
2019-03-17T17:20:40.339Z,13.38
2019-03-17T17:23:09.419Z,11.47
2019-03-17T17:25:38.513Z,16.35
2019-03-17T17:28:07.609Z,9.93
2019-03-17T17:30:36.702Z,9.50
2019-03-17T17:33:05.801Z,11.40
2019-03-17T17:35:35.002Z,14.63
2019-03-17T17:38:03.985Z,16.80
2019-03-17T17:40:33.188Z,12.05
2019-03-17T17:43:02.188Z,9.85
2019-03-17T17:45:31.276Z,13.95
2019-03-17T17:48:00.367Z,9.93
2019-03-17T17:50:30.901Z,9.00
2019-03-17T17:53:00.118Z,14.23
2019-03-17T17:55:29.366Z,18.65
2019-03-17T17:57:58.471Z,14.68
2019-03-17T18:00:31.779Z,14.03
2019-03-17T18:03:00.885Z,16.20
2019-03-17T18:05:30.199Z,10.78
2019-03-17T18:07:59.278Z,16.85
2019-03-17T18:10:28.363Z,12.28
2019-03-17T18:12:57.662Z,15.23
2019-03-17T18:15:31.884Z,11.80
2019-03-17T18:18:00.972Z,17.52
2019-03-17T18:20:30.067Z,13.28
2019-03-17T18:22:59.162Z,15.40
2019-03-17T18:25:28.262Z,13.83
2019-03-17T18:27:57.353Z,12.23
2019-03-17T18:30:26.560Z,20.70
2019-03-17T18:32:55.541Z,9.05
2019-03-17T18:35:24.539Z,11.03
2019-03-17T18:37:53.597Z,17.27
2019-03-17T18:40:23.238Z,10.53
2019-03-17T18:42:52.339Z,11.53
2019-03-17T18:45:23.677Z,16.17
2019-03-17T18:47:52.773Z,15.03
2019-03-17T18:50:22.072Z,12.35
2019-03-17T18:52:51.165Z,12.43
2019-03-17T18:55:20.468Z,14.15
2019-03-17T18:57:53.833Z,9.20
2019-03-17T19:00:26.253Z,11.55
2019-03-17T19:02:55.530Z,14.68
2019-03-17T19:05:24.631Z,12.88
2019-03-17T19:07:53.826Z,16.32
2019-03-17T19:10:22.819Z,15.38
2019-03-17T19:12:51.917Z,15.32
2019-03-17T19:15:21.831Z,10.68
2019-03-17T19:17:51.532Z,8.23
2019-03-17T19:20:21.485Z,9.03
2019-03-17T19:22:50.751Z,11.08
2019-03-17T19:25:21.095Z,7.78
2019-03-17T19:27:50.371Z,11.10
2019-03-17T19:30:20.916Z,17.12
2019-03-17T19:32:49.991Z,10.60
2019-03-17T19:35:19.309Z,11.97
2019-03-17T19:37:48.388Z,11.50
2019-03-17T19:40:20.374Z,11.90
2019-03-17T19:42:58.760Z,15.65
2019-03-17T19:45:20.255Z,10.88
2019-03-17T19:47:49.482Z,19.80
2019-03-17T19:50:37.822Z,11.50
2019-03-17T19:53:07.335Z,12.70
2019-03-17T19:55:36.424Z,8.50
2019-03-17T19:58:05.526Z,7.50
2019-03-17T20:00:34.616Z,6.33
2019-03-17T20:03:03.706Z,10.00
2019-03-17T20:05:32.809Z,6.03
2019-03-17T20:08:01.905Z,8.88
2019-03-17T20:10:35.495Z,11.93
2019-03-17T20:13:11.560Z,18.50
2019-03-17T20:15:35.334Z,12.68
2019-03-17T20:18:04.487Z,12.10
2019-03-17T20:20:34.130Z,11.60
2019-03-17T20:23:03.580Z,17.00
2019-03-17T20:25:33.055Z,10.53
2019-03-17T20:28:02.035Z,8.00
2019-03-17T20:30:31.327Z,9.55
2019-03-17T20:33:00.420Z,15.63
2019-03-17T20:35:29.514Z,17.40
2019-03-17T20:37:58.842Z,11.03
2019-03-17T20:40:27.934Z,15.18
2019-03-17T20:42:57.321Z,15.88
2019-03-17T20:45:26.425Z,15.13
2019-03-17T20:47:56.070Z,14.83
2019-03-17T20:50:25.109Z,10.95
2019-03-17T20:52:54.209Z,16.55
2019-03-17T20:55:23.503Z,10.70
2019-03-17T20:57:52.531Z,14.87
2019-03-17T21:00:21.509Z,10.85
2019-03-17T21:02:50.581Z,10.90
2019-03-17T21:05:19.975Z,16.37
2019-03-17T21:07:49.179Z,10.05
2019-03-17T21:10:18.683Z,8.43
2019-03-17T21:12:47.984Z,13.45
2019-03-17T21:15:24.046Z,9.83
2019-03-17T21:17:53.050Z,9.83
2019-03-17T21:20:45.783Z,16.17
2019-03-17T21:23:14.887Z,12.90
2019-03-17T21:25:44.183Z,12.15
2019-03-17T21:28:13.081Z,9.60
2019-03-17T21:30:42.167Z,16.05
2019-03-17T21:33:11.267Z,11.53
2019-03-17T21:35:40.357Z,10.25
2019-03-17T21:38:28.701Z,15.50
2019-03-17T21:41:06.886Z,9.15
2019-03-17T21:43:28.843Z,8.95
2019-03-17T21:45:58.034Z,14.13
2019-03-17T21:48:26.933Z,9.95
2019-03-17T21:50:56.023Z,12.60
2019-03-17T21:53:25.320Z,12.70
2019-03-17T21:55:54.422Z,10.60
2019-03-17T21:58:23.518Z,8.95
2019-03-17T22:00:52.597Z,12.73
2019-03-17T22:03:22.105Z,10.93
2019-03-17T22:05:51.206Z,14.25
2019-03-17T22:08:20.293Z,9.43
2019-03-17T22:10:49.389Z,12.63
2019-03-17T22:13:18.480Z,9.63
2019-03-17T22:15:47.576Z,9.13
2019-03-17T22:18:16.795Z,11.50
2019-03-17T22:20:45.970Z,8.40
2019-03-17T22:23:15.277Z,11.78
2019-03-17T22:25:44.363Z,11.68
2019-03-17T22:28:13.468Z,7.67
2019-03-17T22:30:42.662Z,5.92
2019-03-17T22:33:11.861Z,12.28
2019-03-17T22:35:40.951Z,9.23
2019-03-17T22:38:10.249Z,9.05
2019-03-17T22:40:39.553Z,7.28
2019-03-17T22:43:08.643Z,8.60
2019-03-17T22:45:38.047Z,12.68
2019-03-17T22:48:07.241Z,10.90
2019-03-17T22:50:36.339Z,7.75
2019-03-17T22:53:05.431Z,14.10
2019-03-17T22:55:34.533Z,13.53
2019-03-17T22:58:03.634Z,13.98
2019-03-17T23:00:34.353Z,14.45
2019-03-17T23:03:03.449Z,14.28
2019-03-17T23:05:32.543Z,10.75
2019-03-17T23:08:01.671Z,8.20
2019-03-17T23:10:30.736Z,7.72
2019-03-17T23:12:59.828Z,11.78
2019-03-17T23:15:28.924Z,11.43
2019-03-17T23:17:57.930Z,9.55
2019-03-17T23:20:27.020Z,11.15
2019-03-17T23:22:56.206Z,5.80
2019-03-17T23:25:25.305Z,10.23
2019-03-17T23:27:54.395Z,11.90
2019-03-17T23:30:23.308Z,10.20
2019-03-17T23:32:52.380Z,8.60
2019-03-17T23:35:21.289Z,7.53
2019-03-17T23:37:50.364Z,9.78
2019-03-17T23:40:19.462Z,12.65
2019-03-17T23:42:48.555Z,10.82
2019-03-17T23:45:17.759Z,10.45
2019-03-17T23:47:46.954Z,6.25
2019-03-17T23:50:16.156Z,7.15
2019-03-17T23:52:45.343Z,10.45
2019-03-17T23:55:15.674Z,6.45
2019-03-17T23:57:44.761Z,5.17
